Time;durP1;ratioP1;P1;durP2;ratioP2;P2;SDS_P1;SDS_P2;PMS_P1;PMS_P2;Temp;Humidity;BMP_temperature;BMP_pressure;BME280_temperature;BME280_humidity;BME280_pressure;Samples;Min_cycle;Max_cycle;Signal;HPM_P1;HPM_P2
2022/08/02 00:02:27;;;;;;;19.93;11.83;;;17.20;99.90;;;;;;4371664;28;658849;-66
2022/08/02 00:05:15;;;;;;;15.53;11.07;;;17.30;99.90;;;;;;4360359;28;658699;-65
2022/08/02 00:08:02;;;;;;;16.50;11.50;;;17.40;99.90;;;;;;4347934;28;659714;-66
2022/08/02 00:10:50;;;;;;;15.00;11.37;;;17.30;99.90;;;;;;4370480;28;658937;-67
2022/08/02 00:13:39;;;;;;;20.03;10.67;;;17.30;99.90;;;;;;4365611;28;658737;-65
2022/08/02 00:16:26;;;;;;;13.10;10.80;;;17.20;99.90;;;;;;4353768;28;658921;-66
2022/08/02 00:19:13;;;;;;;13.60;9.93;;;17.20;99.90;;;;;;4373447;28;659753;-66
2022/08/02 00:22:00;;;;;;;12.33;10.10;;;17.20;99.90;;;;;;4352336;28;657950;-66
2022/08/02 00:24:47;;;;;;;16.30;10.50;;;17.30;99.90;;;;;;4375610;28;659465;-66
2022/08/02 00:27:34;;;;;;;16.90;9.73;;;17.20;99.90;;;;;;4371688;28;658561;-65
2022/08/02 00:30:23;;;;;;;16.30;10.30;;;17.30;99.90;;;;;;4344801;28;658041;-67
2022/08/02 00:33:10;;;;;;;15.20;9.33;;;17.20;99.90;;;;;;4351648;28;658681;-66
2022/08/02 00:35:57;;;;;;;13.05;9.75;;;17.20;99.90;;;;;;4377429;28;658078;-66
2022/08/02 00:38:45;;;;;;;14.30;10.43;;;17.10;99.90;;;;;;4371405;28;659090;-65
2022/08/02 00:41:32;;;;;;;13.33;10.73;;;17.00;99.90;;;;;;4345395;28;659244;-65
2022/08/02 00:44:20;;;;;;;15.63;11.10;;;16.90;99.90;;;;;;4370408;28;658736;-66
2022/08/02 00:47:08;;;;;;;15.30;10.47;;;17.00;99.90;;;;;;4350846;28;659857;-65
2022/08/02 00:49:55;;;;;;;14.00;10.17;;;17.00;99.90;;;;;;4353693;28;659082;-66
2022/08/02 00:52:42;;;;;;;14.33;11.40;;;17.00;99.90;;;;;;4356536;28;659686;-66
2022/08/02 00:55:30;;;;;;;15.80;12.43;;;17.10;99.90;;;;;;4348198;28;658852;-66
2022/08/02 00:58:17;;;;;;;22.43;13.17;;;17.20;99.90;;;;;;4319799;28;660468;-66
2022/08/02 01:01:04;;;;;;;20.10;11.90;;;17.20;99.90;;;;;;4367635;28;659061;-66
2022/08/02 01:03:52;;;;;;;18.70;12.60;;;17.20;99.90;;;;;;4350351;28;658753;-66
2022/08/02 01:06:41;;;;;;;18.03;13.90;;;17.20;99.90;;;;;;4364969;28;658521;-66
2022/08/02 01:09:28;;;;;;;21.17;14.23;;;17.10;99.90;;;;;;4370587;28;660408;-65
2022/08/02 01:12:15;;;;;;;23.43;15.23;;;17.10;99.90;;;;;;4342668;28;658845;-66
2022/08/02 01:15:04;;;;;;;20.50;15.87;;;17.10;99.90;;;;;;4372256;28;658649;-67
2022/08/02 01:17:54;;;;;;;23.73;16.53;;;17.00;99.90;;;;;;4351267;28;659141;-65
2022/08/02 01:21:12;;;;;;;25.33;16.30;;;17.00;99.90;;;;;;4350258;28;658837;-65
2022/08/02 01:24:04;;;;;;;23.17;17.03;;;17.00;99.90;;;;;;4351696;28;659068;-65
2022/08/02 01:26:52;;;;;;;29.17;18.27;;;17.00;99.90;;;;;;4351559;28;658933;-65
2022/08/02 01:29:43;;;;;;;36.03;21.90;;;16.90;99.90;;;;;;4369230;28;658822;-65
2022/08/02 01:32:33;;;;;;;34.37;21.97;;;16.90;99.90;;;;;;4351266;28;658689;-66
2022/08/02 01:35:23;;;;;;;35.77;21.00;;;16.90;99.90;;;;;;4349630;28;659478;-66
2022/08/02 01:38:14;;;;;;;39.37;21.50;;;17.00;99.90;;;;;;4349334;28;658449;-66
2022/08/02 01:41:01;;;;;;;37.78;22.70;;;17.00;99.90;;;;;;4351621;28;658656;-66
2022/08/02 01:43:51;;;;;;;36.33;23.17;;;16.90;99.90;;;;;;4370265;28;658843;-66
2022/08/02 01:46:40;;;;;;;42.23;23.40;;;17.00;99.90;;;;;;4348098;28;660353;-66
2022/08/02 01:49:28;;;;;;;41.67;24.67;;;17.00;99.90;;;;;;4346532;28;660612;-66
2022/08/02 01:52:25;;;;;;;42.93;24.63;;;17.10;99.90;;;;;;4347183;28;659507;-66
2022/08/02 01:55:13;;;;;;;45.50;26.13;;;17.10;99.90;;;;;;4317498;28;659788;-66
2022/08/02 01:58:04;;;;;;;40.80;25.57;;;17.10;99.90;;;;;;4350756;28;659082;-66
2022/08/02 02:00:51;;;;;;;48.87;25.70;;;17.10;99.90;;;;;;4347823;28;658771;-65
2022/08/02 02:03:39;;;;;;;59.23;28.93;;;17.10;99.90;;;;;;4370799;28;659368;-70
2022/08/02 02:06:26;;;;;;;58.93;30.50;;;17.10;99.90;;;;;;4350929;28;658768;-66
2022/08/02 02:09:14;;;;;;;77.23;35.23;;;17.10;99.90;;;;;;4368161;28;658771;-66
2022/08/02 02:12:02;;;;;;;85.53;36.03;;;17.10;99.90;;;;;;4352394;28;659261;-66
2022/08/02 02:14:49;;;;;;;92.10;34.83;;;17.00;99.90;;;;;;4369225;28;658697;-66
2022/08/02 02:17:36;;;;;;;80.27;34.13;;;17.00;99.90;;;;;;4349700;28;658945;-65
2022/08/02 02:20:24;;;;;;;78.77;35.00;;;17.10;99.90;;;;;;4368022;28;659198;-66
2022/08/02 02:23:12;;;;;;;94.47;37.73;;;17.00;99.90;;;;;;4348665;28;658966;-66
2022/08/02 02:25:59;;;;;;;79.60;34.17;;;17.00;99.90;;;;;;4368793;28;659681;-66
2022/08/02 02:28:47;;;;;;;64.10;29.27;;;17.00;99.90;;;;;;4350890;28;658169;-65
2022/08/02 02:31:35;;;;;;;53.93;26.90;;;17.20;99.90;;;;;;4369507;28;658629;-66
2022/08/02 02:34:25;;;;;;;61.03;29.03;;;17.20;99.90;;;;;;4346507;28;660029;-66
2022/08/02 02:37:16;;;;;;;73.17;29.13;;;17.10;99.90;;;;;;4349795;28;659309;-65
2022/08/02 02:40:04;;;;;;;60.70;27.77;;;17.10;99.90;;;;;;4350973;28;660401;-66
2022/08/02 02:42:51;;;;;;;58.87;28.90;;;17.10;99.90;;;;;;4354430;28;659315;-66
2022/08/02 02:45:38;;;;;;;70.60;28.37;;;17.10;99.90;;;;;;4371517;28;659225;-65
2022/08/02 02:48:26;;;;;;;91.50;28.63;;;17.20;99.90;;;;;;4346625;28;660183;-66
2022/08/02 02:51:13;;;;;;;85.37;30.77;;;16.90;99.90;;;;;;4369043;28;659286;-66
2022/08/02 02:54:01;;;;;;;66.20;30.50;;;16.90;99.90;;;;;;4355925;28;658477;-66
2022/08/02 02:56:49;;;;;;;60.23;29.27;;;17.00;99.90;;;;;;4372674;28;658642;-65
2022/08/02 02:59:36;;;;;;;61.67;30.27;;;17.00;99.90;;;;;;4353752;28;658518;-66
2022/08/02 03:02:23;;;;;;;74.90;30.53;;;16.90;99.90;;;;;;4376178;28;658933;-66
2022/08/02 03:05:11;;;;;;;68.60;31.97;;;16.90;99.90;;;;;;4358864;28;658679;-66
2022/08/02 03:07:58;;;;;;;61.97;30.43;;;16.90;99.90;;;;;;4376756;28;659485;-66
2022/08/02 03:10:47;;;;;;;63.57;31.80;;;17.00;99.90;;;;;;4348108;28;659764;-66
2022/08/02 03:13:34;;;;;;;69.13;31.80;;;17.00;99.90;;;;;;4369371;28;659413;-66
2022/08/02 03:16:21;;;;;;;66.70;31.83;;;17.00;99.90;;;;;;4350531;28;658980;-66
2022/08/02 03:19:08;;;;;;;67.50;32.37;;;17.10;99.90;;;;;;4370445;28;659143;-66
2022/08/02 03:21:56;;;;;;;73.97;32.83;;;17.10;99.90;;;;;;4352909;28;658846;-65
2022/08/02 03:24:43;;;;;;;78.63;33.47;;;17.10;99.90;;;;;;4371714;28;659447;-65
2022/08/02 03:27:32;;;;;;;73.87;33.80;;;17.00;99.90;;;;;;4353517;28;658537;-65
2022/08/02 03:30:19;;;;;;;88.43;35.50;;;17.00;99.90;;;;;;4372113;28;658548;-66
2022/08/02 03:33:06;;;;;;;79.57;34.43;;;16.90;99.90;;;;;;4346043;28;658557;-66
2022/08/02 03:35:54;;;;;;;76.70;36.47;;;17.00;99.90;;;;;;4369981;28;659763;-66
2022/08/02 03:38:41;;;;;;;77.57;35.43;;;17.00;99.90;;;;;;4346986;28;659202;-66
2022/08/02 03:41:28;;;;;;;75.67;34.77;;;17.00;99.90;;;;;;4367872;28;659813;-66
2022/08/02 03:44:17;;;;;;;74.33;35.70;;;17.00;99.90;;;;;;4349266;28;659064;-66
2022/08/02 03:47:04;;;;;;;77.73;35.40;;;17.10;99.90;;;;;;4368927;28;659288;-66
2022/08/02 03:49:52;;;;;;;85.27;36.57;;;17.00;99.90;;;;;;4344946;28;659042;-66
2022/08/02 03:52:39;;;;;;;82.57;37.20;;;17.10;99.90;;;;;;4367260;28;658756;-66
2022/08/02 03:55:26;;;;;;;75.43;36.13;;;17.20;99.90;;;;;;4352146;28;660169;-67
2022/08/02 03:58:18;;;;;;;79.03;37.83;;;17.10;99.90;;;;;;4370053;28;659466;-65
2022/08/02 04:01:06;;;;;;;78.90;37.93;;;17.10;99.90;;;;;;4340475;28;658546;-66
2022/08/02 04:03:53;;;;;;;75.80;37.90;;;17.00;99.90;;;;;;4374102;28;658553;-66
2022/08/02 04:06:41;;;;;;;85.90;37.23;;;17.10;99.90;;;;;;4354893;28;658721;-66
2022/08/02 04:09:28;;;;;;;72.73;37.33;;;17.10;99.90;;;;;;4378254;28;659223;-66
2022/08/02 04:12:15;;;;;;;71.37;33.17;;;17.20;99.90;;;;;;4358030;28;658542;-67
2022/08/02 04:15:02;;;;;;;76.23;36.17;;;17.20;99.90;;;;;;4378642;28;659086;-65
2022/08/02 04:17:55;;;;;;;70.20;34.50;;;17.20;99.90;;;;;;4370650;28;658991;-66
2022/08/02 04:20:42;;;;;;;71.97;35.40;;;17.10;99.90;;;;;;4345430;28;659000;-66
2022/08/02 04:23:29;;;;;;;82.40;36.83;;;17.20;99.90;;;;;;4358236;28;658623;-65
2022/08/02 04:26:16;;;;;;;85.57;36.07;;;17.00;99.90;;;;;;4341714;28;658602;-66
2022/08/02 04:29:03;;;;;;;76.33;35.77;;;17.00;99.90;;;;;;4365079;28;659554;-66
2022/08/02 04:31:51;;;;;;;66.57;32.40;;;17.00;99.90;;;;;;4349359;28;658745;-66
2022/08/02 04:34:39;;;;;;;70.27;34.50;;;17.20;99.90;;;;;;4357806;28;659695;-65
2022/08/02 04:37:26;;;;;;;73.17;35.37;;;17.20;99.90;;;;;;4346086;28;658174;-66
2022/08/02 04:40:14;;;;;;;80.53;35.00;;;17.20;99.90;;;;;;4363971;28;659738;-65
2022/08/02 04:43:01;;;;;;;75.73;37.10;;;17.10;99.90;;;;;;4349699;28;659091;-65
2022/08/02 04:45:49;;;;;;;77.33;35.83;;;17.20;99.90;;;;;;4371289;28;659930;-66
2022/08/02 04:48:36;;;;;;;69.72;34.42;;;17.30;99.90;;;;;;4341792;28;658425;-66
2022/08/02 04:51:25;;;;;;;64.33;31.00;;;17.50;99.90;;;;;;4362526;28;660066;-67
2022/08/02 04:54:12;;;;;;;57.07;29.33;;;17.60;99.90;;;;;;4342981;28;660420;-66
2022/08/02 04:56:59;;;;;;;56.23;31.23;;;17.80;99.90;;;;;;4367546;28;658685;-65
2022/08/02 04:59:46;;;;;;;66.80;33.80;;;17.70;99.90;;;;;;4348052;28;659677;-65
2022/08/02 05:02:33;;;;;;;67.40;33.70;;;17.60;99.90;;;;;;4366706;28;659276;-66
2022/08/02 05:05:20;;;;;;;59.30;30.27;;;17.60;99.90;;;;;;4349317;28;658729;-66
2022/08/02 05:08:09;;;;;;;53.13;30.90;;;17.50;99.90;;;;;;4367956;28;660026;-65
2022/08/02 05:10:56;;;;;;;53.37;30.03;;;17.60;99.90;;;;;;4350109;28;659188;-65
2022/08/02 05:13:43;;;;;;;53.90;29.13;;;17.60;99.90;;;;;;4367949;28;659937;-64
2022/08/02 05:16:30;;;;;;;55.57;30.73;;;17.50;99.90;;;;;;4346802;28;658598;-67
2022/08/02 05:19:17;;;;;;;56.33;30.80;;;17.50;99.90;;;;;;4367723;28;659413;-66
2022/08/02 05:22:04;;;;;;;61.63;33.00;;;17.50;99.90;;;;;;4364164;28;658636;-64
2022/08/02 05:24:53;;;;;;;59.00;31.93;;;17.60;99.90;;;;;;4342311;28;658969;-66
2022/08/02 05:27:40;;;;;;;54.63;30.90;;;17.60;99.90;;;;;;4351404;28;659400;-67
2022/08/02 05:30:27;;;;;;;60.67;33.60;;;17.70;99.90;;;;;;4370367;28;658680;-66
2022/08/02 05:33:14;;;;;;;54.23;31.13;;;17.70;99.90;;;;;;4356144;28;658729;-66
2022/08/02 05:36:01;;;;;;;55.33;30.40;;;17.70;99.90;;;;;;4345134;28;658598;-66
2022/08/02 05:38:49;;;;;;;56.93;30.67;;;17.70;99.90;;;;;;4368243;28;658331;-66
2022/08/02 05:41:38;;;;;;;63.50;33.70;;;17.70;99.90;;;;;;4346099;28;659617;-65
2022/08/02 05:44:25;;;;;;;65.17;34.50;;;17.80;99.90;;;;;;4354507;28;659078;-67
2022/08/02 05:47:12;;;;;;;68.40;34.83;;;17.80;99.90;;;;;;4367269;28;658690;-66
2022/08/02 05:49:59;;;;;;;69.20;34.50;;;17.80;99.90;;;;;;4367117;28;659913;-66
2022/08/02 05:52:50;;;;;;;67.80;31.20;;;17.70;99.90;;;;;;4342423;28;659054;-66
2022/08/02 05:55:40;;;;;;;72.53;34.83;;;17.90;99.90;;;;;;4341561;28;659926;-66
2022/08/02 05:58:34;;;;;;;66.17;32.20;;;17.80;99.90;;;;;;4345146;28;659922;-65
2022/08/02 06:01:26;;;;;;;79.23;35.33;;;17.70;99.90;;;;;;4319577;28;660301;-66
2022/08/02 06:04:16;;;;;;;79.43;34.50;;;17.60;99.90;;;;;;4344341;28;659048;-67
2022/08/02 06:07:05;;;;;;;70.77;30.07;;;17.70;99.90;;;;;;4347112;28;659357;-67
2022/08/02 06:09:52;;;;;;;75.73;34.67;;;17.70;99.90;;;;;;4347115;28;659259;-66
2022/08/02 06:12:43;;;;;;;66.67;30.47;;;17.70;99.90;;;;;;4365655;28;658817;-66
2022/08/02 06:15:31;;;;;;;70.23;29.83;;;17.80;99.90;;;;;;4328522;28;658435;-67
2022/08/02 06:18:19;;;;;;;84.87;35.00;;;17.80;99.90;;;;;;4362620;28;658555;-66
2022/08/02 06:21:07;;;;;;;80.23;35.60;;;17.80;99.90;;;;;;4349425;28;659334;-66
2022/08/02 06:23:54;;;;;;;78.00;35.07;;;17.90;99.90;;;;;;4367967;28;658724;-66
2022/08/02 06:26:41;;;;;;;86.07;38.97;;;18.00;99.90;;;;;;4347005;28;658423;-66
2022/08/02 06:29:29;;;;;;;88.07;39.10;;;18.00;99.90;;;;;;4364970;28;658361;-65
2022/08/02 06:32:18;;;;;;;87.10;35.23;;;17.90;99.90;;;;;;4349864;28;659157;-66
2022/08/02 06:35:06;;;;;;;98.43;36.23;;;17.90;99.90;;;;;;4349927;28;658668;-66
2022/08/02 06:37:58;;;;;;;86.47;36.27;;;17.70;99.90;;;;;;4368622;28;659459;-66
2022/08/02 06:40:48;;;;;;;89.73;38.23;;;17.80;99.90;;;;;;4318725;28;658649;-66
2022/08/02 06:43:43;;;;;;;88.07;37.00;;;17.70;99.90;;;;;;4358440;28;658629;-67
2022/08/02 06:46:30;;;;;;;89.43;36.67;;;17.80;99.90;;;;;;4312160;28;658876;-66
2022/08/02 06:49:19;;;;;;;80.70;35.97;;;17.70;99.90;;;;;;4367572;28;658208;-65
2022/08/02 06:52:06;;;;;;;88.33;37.03;;;17.80;99.90;;;;;;4342584;28;658475;-66
2022/08/02 06:54:53;;;;;;;77.53;35.43;;;17.90;99.90;;;;;;4360878;28;658695;-66
2022/08/02 06:57:40;;;;;;;76.47;33.37;;;18.10;99.90;;;;;;4344643;28;658668;-66
2022/08/02 07:00:27;;;;;;;67.37;32.13;;;18.10;99.90;;;;;;4371537;28;658316;-66
2022/08/02 07:03:14;;;;;;;56.10;30.60;;;18.30;99.90;;;;;;4367493;28;658967;-65
2022/08/02 07:06:03;;;;;;;53.73;27.03;;;18.20;99.90;;;;;;4346394;28;658925;-65
2022/08/02 07:08:50;;;;;;;60.03;30.53;;;18.10;99.90;;;;;;4351573;28;658664;-66
2022/08/02 07:11:37;;;;;;;62.17;32.63;;;18.10;99.90;;;;;;4358422;28;659282;-66
2022/08/02 07:14:24;;;;;;;64.50;32.47;;;18.20;99.90;;;;;;4357640;28;658219;-65
2022/08/02 07:17:12;;;;;;;59.47;31.63;;;18.10;99.90;;;;;;4331445;28;660237;-66
2022/08/02 07:19:59;;;;;;;58.93;30.50;;;18.40;99.90;;;;;;4354558;28;658440;-66
2022/08/02 07:22:47;;;;;;;62.73;31.97;;;18.60;99.90;;;;;;4338841;28;658962;-65
2022/08/02 07:25:35;;;;;;;55.63;28.87;;;18.70;99.90;;;;;;4368006;28;658809;-66
2022/08/02 07:28:22;;;;;;;54.50;28.93;;;18.80;99.90;;;;;;4367600;28;658662;-65
2022/08/02 07:31:09;;;;;;;58.30;31.67;;;19.00;99.90;;;;;;4368518;28;659040;-65
2022/08/02 07:33:56;;;;;;;42.47;25.43;;;19.00;99.90;;;;;;4349512;28;658614;-66
2022/08/02 07:36:44;;;;;;;47.80;26.87;;;19.30;99.90;;;;;;4367468;28;658519;-65
2022/08/02 07:39:32;;;;;;;38.47;22.50;;;19.70;99.90;;;;;;4336696;28;658915;-66
2022/08/02 07:42:19;;;;;;;32.47;20.67;;;19.80;99.90;;;;;;4370695;28;659048;-66
2022/08/02 07:45:07;;;;;;;38.80;21.03;;;20.10;99.90;;;;;;4340991;28;658734;-65
2022/08/02 07:47:55;;;;;;;32.53;20.63;;;20.20;99.90;;;;;;4369683;28;659529;-65
2022/08/02 07:50:42;;;;;;;30.50;19.00;;;20.60;99.90;;;;;;4336441;28;659981;-65
2022/08/02 07:53:30;;;;;;;30.83;19.73;;;20.90;99.90;;;;;;4365704;28;658324;-66
2022/08/02 07:56:19;;;;;;;32.03;19.10;;;20.50;99.90;;;;;;4367811;28;658763;-65
2022/08/02 07:59:06;;;;;;;28.67;18.07;;;19.50;99.90;;;;;;4347715;28;658940;-65
2022/08/02 08:01:53;;;;;;;24.20;16.53;;;19.90;99.90;;;;;;4415104;28;659090;-66
2022/08/02 08:04:40;;;;;;;25.13;16.30;;;20.50;99.90;;;;;;4352078;28;658697;-66
2022/08/02 08:07:27;;;;;;;21.47;14.67;;;21.20;99.90;;;;;;4365058;28;659181;-65
2022/08/02 08:10:14;;;;;;;23.90;15.63;;;21.30;99.90;;;;;;4357364;28;659504;-64
2022/08/02 08:13:03;;;;;;;23.90;14.43;;;21.40;99.90;;;;;;4345329;28;658567;-64
2022/08/02 08:15:50;;;;;;;23.73;16.17;;;21.10;99.90;;;;;;4348046;28;659215;-64
2022/08/02 08:18:37;;;;;;;25.17;15.13;;;21.10;99.90;;;;;;4366630;28;659359;-64
2022/08/02 08:21:24;;;;;;;23.43;14.23;;;21.20;99.90;;;;;;4360762;28;658396;-64
2022/08/02 08:24:11;;;;;;;23.40;15.90;;;21.20;99.90;;;;;;4333926;28;658923;-64
2022/08/02 08:26:58;;;;;;;23.57;15.33;;;21.60;99.90;;;;;;4358827;28;660356;-64
2022/08/02 08:29:47;;;;;;;23.77;15.70;;;21.30;99.90;;;;;;4339399;28;658435;-64
2022/08/02 08:32:34;;;;;;;27.90;16.53;;;21.40;99.90;;;;;;4360078;28;658795;-64
2022/08/02 08:35:21;;;;;;;28.03;17.80;;;20.40;99.90;;;;;;4338238;28;658415;-64
2022/08/02 08:38:08;;;;;;;25.57;16.47;;;20.30;99.90;;;;;;4359614;28;659979;-63
2022/08/02 08:40:55;;;;;;;27.37;17.10;;;20.50;99.90;;;;;;4349130;28;658971;-65
2022/08/02 08:43:42;;;;;;;28.10;17.40;;;20.60;99.90;;;;;;4362975;28;659534;-65
2022/08/02 08:46:32;;;;;;;32.03;17.83;;;20.70;99.90;;;;;;4362065;28;658667;-64
2022/08/02 08:49:23;;;;;;;25.90;16.80;;;20.50;99.90;;;;;;4331938;28;658959;-63
2022/08/02 08:52:10;;;;;;;28.53;19.67;;;20.80;99.90;;;;;;4336669;28;658788;-65
2022/08/02 08:54:57;;;;;;;26.50;17.87;;;20.40;22.60;;;;;;4365408;28;658644;-64
2022/08/02 08:57:44;;;;;;;27.37;17.53;;;20.50;99.90;;;;;;4362224;28;659134;-64
2022/08/02 09:00:32;;;;;;;22.80;16.97;;;21.10;99.90;;;;;;4343746;28;659483;-65
2022/08/02 09:03:21;;;;;;;29.37;17.73;;;21.20;1.00;;;;;;4362172;28;659058;-66
2022/08/02 09:06:09;;;;;;;25.23;17.77;;;21.10;1.00;;;;;;4364994;28;657378;-64
2022/08/02 09:08:56;;;;;;;26.73;17.83;;;20.90;1.00;;;;;;4348908;28;657459;-66
2022/08/02 09:11:43;;;;;;;23.90;17.33;;;21.10;1.00;;;;;;4368178;28;657118;-64
2022/08/02 09:14:31;;;;;;;22.97;16.23;;;20.80;1.00;;;;;;4353823;28;658049;-65
2022/08/02 09:17:19;;;;;;;28.33;16.30;;;21.00;99.90;;;;;;4368842;28;658497;-64
2022/08/02 09:20:09;;;;;;;25.60;17.70;;;20.70;99.90;;;;;;4350033;28;659173;-63
2022/08/02 09:23:05;;;;;;;28.43;19.87;;;20.30;99.90;;;;;;4347685;28;658453;-63
2022/08/02 09:25:57;;;;;;;30.17;19.40;;;20.20;99.90;;;;;;4330918;28;659563;-64
2022/08/02 09:28:46;;;;;;;37.40;22.57;;;20.40;99.90;;;;;;4343799;28;658389;-64
2022/08/02 09:31:33;;;;;;;38.63;24.93;;;20.50;99.90;;;;;;4336434;28;659039;-64
2022/08/02 09:34:21;;;;;;;37.23;22.70;;;21.40;99.90;;;;;;4356074;28;658710;-65
2022/08/02 09:37:21;;;;;;;34.80;20.57;;;22.40;99.90;;;;;;4368001;28;660405;-64
2022/08/02 09:40:10;;;;;;;27.77;18.80;;;23.60;99.90;;;;;;4326368;28;659007;-64
2022/08/02 09:42:58;;;;;;;22.43;16.77;;;22.30;99.90;;;;;;4346481;28;659534;-63
2022/08/02 09:45:45;;;;;;;30.70;21.57;;;22.40;99.90;;;;;;4345466;28;659260;-65
2022/08/02 09:48:32;;;;;;;31.37;21.17;;;22.50;99.90;;;;;;4361895;28;659428;-65
2022/08/02 09:51:21;;;;;;;29.50;21.53;;;22.60;99.90;;;;;;4367124;28;658873;-63
2022/08/02 09:54:11;;;;;;;26.43;19.70;;;22.60;99.90;;;;;;4345906;28;660363;-63
2022/08/02 09:56:59;;;;;;;25.63;17.53;;;22.70;99.90;;;;;;4345035;28;660938;-64
2022/08/02 09:59:52;;;;;;;19.63;16.43;;;22.60;99.90;;;;;;4343573;28;658442;-64
2022/08/02 10:02:39;;;;;;;21.13;16.70;;;22.60;99.90;;;;;;4344111;28;659028;-64
2022/08/02 10:05:30;;;;;;;20.60;16.60;;;23.20;99.90;;;;;;4342726;28;658564;-64
2022/08/02 10:08:17;;;;;;;23.80;17.50;;;23.70;99.90;;;;;;4340014;28;659274;-65
2022/08/02 10:11:05;;;;;;;21.27;14.77;;;23.70;99.90;;;;;;4360558;28;658587;-64
2022/08/02 10:13:52;;;;;;;19.23;14.30;;;23.30;99.90;;;;;;4344611;28;659588;-63
2022/08/02 10:16:41;;;;;;;15.83;13.20;;;23.80;99.90;;;;;;4365348;28;659566;-65
2022/08/02 10:19:28;;;;;;;14.53;11.73;;;23.30;99.90;;;;;;4360631;28;659649;-64
2022/08/02 10:22:15;;;;;;;14.53;11.17;;;22.50;99.90;;;;;;4347407;28;658814;-64
2022/08/02 10:25:03;;;;;;;16.77;12.17;;;22.90;99.90;;;;;;4362113;28;659645;-64
2022/08/02 10:27:51;;;;;;;16.77;12.73;;;23.10;99.90;;;;;;4347175;28;658706;-65
2022/08/02 10:30:40;;;;;;;19.20;13.13;;;23.90;99.90;;;;;;4363319;28;658584;-63
2022/08/02 10:33:27;;;;;;;21.30;14.47;;;23.60;99.90;;;;;;4342736;28;659876;-64
2022/08/02 10:36:14;;;;;;;25.17;17.80;;;23.70;99.90;;;;;;4367519;28;658190;-63
2022/08/02 10:39:02;;;;;;;20.30;15.47;;;23.40;99.90;;;;;;4344971;28;659916;-63
2022/08/02 10:41:50;;;;;;;20.23;15.67;;;23.40;99.90;;;;;;4363301;28;659319;-64
2022/08/02 10:44:38;;;;;;;22.07;14.23;;;24.20;99.90;;;;;;4336711;28;659753;-64
2022/08/02 10:47:26;;;;;;;18.88;14.25;;;24.40;99.90;;;;;;4344673;28;658589;-64
2022/08/02 10:50:13;;;;;;;16.35;13.13;;;24.30;99.90;;;;;;4365115;28;659475;-65
2022/08/02 10:53:22;;;;;;;18.13;13.73;;;23.90;99.90;;;;;;4350130;28;659474;-64
2022/08/02 10:56:10;;;;;;;20.47;13.80;;;23.20;99.90;;;;;;4334318;28;659514;-63
2022/08/02 10:59:18;;;;;;;17.87;14.50;;;23.70;99.90;;;;;;4349038;28;659606;-64
2022/08/02 11:02:07;;;;;;;20.83;15.77;;;24.20;99.90;;;;;;4348850;28;658723;-65
2022/08/02 11:05:12;;;;;;;19.75;15.05;;;24.20;99.90;;;;;;4366922;28;659482;-64
2022/08/02 11:07:59;;;;;;;20.58;15.48;;;24.00;99.90;;;;;;4345897;28;658372;-64
2022/08/02 11:10:46;;;;;;;21.00;16.88;;;24.70;99.90;;;;;;4343498;28;658773;-64
2022/08/02 11:13:33;;;;;;;19.05;16.45;;;24.70;99.90;;;;;;4365700;28;659923;-64
2022/08/02 11:16:20;;;;;;;22.08;17.20;;;24.20;99.90;;;;;;4352267;28;658835;-64
2022/08/02 11:19:10;;;;;;;21.08;17.90;;;24.30;99.90;;;;;;4376482;28;659490;-65
2022/08/02 11:22:00;;;;;;;20.50;16.38;;;24.60;99.90;;;;;;4351829;28;659301;-64
2022/08/02 11:24:48;;;;;;;18.10;15.40;;;24.90;99.90;;;;;;4342923;28;659498;-64
2022/08/02 11:27:35;;;;;;;22.10;15.45;;;25.00;99.90;;;;;;4357199;28;659041;-65
2022/08/02 11:30:22;;;;;;;18.38;13.68;;;25.20;99.90;;;;;;4377053;28;658617;-64
2022/08/02 11:33:09;;;;;;;21.40;16.02;;;24.90;99.90;;;;;;4366109;28;659543;-63
2022/08/02 11:36:01;;;;;;;20.33;14.60;;;24.50;99.90;;;;;;4351410;28;658790;-66
2022/08/02 11:38:48;;;;;;;17.48;14.40;;;25.20;99.90;;;;;;4344850;28;659282;-64
2022/08/02 11:41:35;;;;;;;17.10;14.90;;;25.00;99.90;;;;;;4342165;28;658951;-64
2022/08/02 11:44:22;;;;;;;18.63;15.35;;;25.00;99.90;;;;;;4369355;28;659142;-64
2022/08/02 11:47:11;;;;;;;15.52;13.52;;;25.40;99.90;;;;;;4356057;28;658664;-65
2022/08/02 11:50:05;;;;;;;14.60;12.80;;;26.00;99.90;;;;;;4362725;28;659396;-64
2022/08/02 11:52:54;;;;;;;21.77;15.60;;;25.90;99.90;;;;;;4347861;28;659092;-64
2022/08/02 11:55:41;;;;;;;25.05;14.70;;;25.50;99.90;;;;;;4346401;28;658953;-64
2022/08/02 11:58:28;;;;;;;21.13;16.13;;;24.60;99.90;;;;;;4368689;28;659269;-63
2022/08/02 12:01:15;;;;;;;17.90;13.90;;;24.90;99.90;;;;;;4345390;28;658587;-64
2022/08/02 12:04:02;;;;;;;21.33;13.68;;;25.20;99.90;;;;;;4368159;28;659684;-64
2022/08/02 12:06:57;;;;;;;15.13;12.52;;;24.20;99.90;;;;;;4368815;28;658564;-65
2022/08/02 12:09:45;;;;;;;18.30;13.90;;;24.20;99.90;;;;;;4342653;28;658309;-64
2022/08/02 12:12:32;;;;;;;17.80;12.18;;;24.80;99.90;;;;;;4349760;28;659859;-64
2022/08/02 12:15:33;;;;;;;18.70;11.50;;;25.60;99.90;;;;;;4369858;28;658435;-64
2022/08/02 12:21:26;;;;;;;13.82;10.52;;;25.00;99.90;;;;;;4326292;28;659446;-64
2022/08/02 12:24:13;;;;;;;15.57;10.63;;;24.50;99.90;;;;;;4368080;28;659038;-65
2022/08/02 12:27:02;;;;;;;16.48;10.32;;;24.70;99.90;;;;;;4346332;28;659021;-64
2022/08/02 12:29:49;;;;;;;12.05;9.50;;;25.40;99.90;;;;;;4371064;28;658540;-64
2022/08/02 12:32:36;;;;;;;14.25;9.52;;;24.70;99.90;;;;;;4347659;28;657552;-64
2022/08/02 12:35:23;;;;;;;13.73;9.55;;;25.60;99.90;;;;;;4371983;28;658599;-63
2022/08/02 12:38:10;;;;;;;14.98;10.38;;;25.10;99.90;;;;;;4349371;28;658100;-65
2022/08/02 12:40:59;;;;;;;11.98;10.45;;;24.90;99.90;;;;;;4372594;28;659607;-64
2022/08/02 12:43:48;;;;;;;14.90;10.75;;;24.90;99.90;;;;;;4345792;28;659382;-64
2022/08/02 12:46:36;;;;;;;16.13;10.65;;;24.90;99.90;;;;;;4350789;28;659071;-64
2022/08/02 12:49:23;;;;;;;13.57;10.10;;;25.80;99.90;;;;;;4370713;28;659867;-64
2022/08/02 12:52:20;;;;;;;13.40;10.00;;;26.10;99.20;;;;;;4357001;28;658650;-65
2022/08/02 12:55:16;;;;;;;13.32;9.65;;;26.20;99.90;;;;;;4350169;28;658642;-64
2022/08/02 12:58:03;;;;;;;18.10;10.45;;;26.20;99.00;;;;;;4345250;28;658108;-65
2022/08/02 13:00:53;;;;;;;13.30;9.75;;;27.10;99.90;;;;;;4347286;28;658356;-66
2022/08/02 13:03:40;;;;;;;13.68;10.55;;;27.80;97.50;;;;;;4349639;28;657505;-66
2022/08/02 13:06:27;;;;;;;14.98;10.13;;;26.90;95.80;;;;;;4366701;28;660054;-65
2022/08/02 13:09:16;;;;;;;15.50;9.10;;;26.60;95.50;;;;;;4362044;28;659407;-66
2022/08/02 13:12:03;;;;;;;13.13;9.77;;;26.50;95.80;;;;;;4371858;28;659062;-65
2022/08/02 13:14:51;;;;;;;13.88;10.40;;;26.30;97.80;;;;;;4347264;28;657901;-66
2022/08/02 13:17:39;;;;;;;12.13;9.95;;;26.80;93.90;;;;;;4370359;28;659778;-64
2022/08/02 13:20:27;;;;;;;17.67;11.10;;;25.70;96.40;;;;;;4349339;28;658028;-65
2022/08/02 13:23:14;;;;;;;14.55;10.18;;;25.10;99.90;;;;;;4362791;28;658310;-65
2022/08/02 13:26:01;;;;;;;17.08;10.57;;;25.70;99.90;;;;;;4346937;28;658894;-65
2022/08/02 13:28:48;;;;;;;12.52;10.85;;;24.90;99.90;;;;;;4365777;28;659389;-64
2022/08/02 13:31:36;;;;;;;14.57;10.27;;;25.30;99.90;;;;;;4343393;28;658589;-64
2022/08/02 13:34:24;;;;;;;14.77;10.32;;;26.40;99.90;;;;;;4363883;28;658981;-65
2022/08/02 13:37:12;;;;;;;17.77;9.57;;;27.40;98.30;;;;;;4345158;28;659337;-64
2022/08/02 13:39:59;;;;;;;11.85;9.70;;;27.90;98.90;;;;;;4371715;28;657531;-65
2022/08/02 13:42:46;;;;;;;10.90;9.70;;;27.50;96.70;;;;;;4342820;28;657754;-65
2022/08/02 13:45:33;;;;;;;12.27;9.75;;;26.40;97.10;;;;;;4368047;28;657602;-65
2022/08/02 13:48:20;;;;;;;12.25;9.35;;;25.80;99.60;;;;;;4349366;28;658134;-66
2022/08/02 13:51:10;;;;;;;13.80;10.05;;;25.60;98.20;;;;;;4370228;28;657699;-64
2022/08/02 13:53:58;;;;;;;13.77;10.25;;;25.50;99.80;;;;;;4341228;28;660193;-65
2022/08/02 13:56:45;;;;;;;12.23;10.07;;;25.60;99.90;;;;;;4360187;28;658434;-65
2022/08/02 13:59:32;;;;;;;16.13;10.70;;;25.40;99.90;;;;;;4368536;28;658273;-64
2022/08/02 14:02:19;;;;;;;14.65;10.63;;;25.00;99.90;;;;;;4364214;28;658275;-65
2022/08/02 14:05:07;;;;;;;10.60;9.52;;;25.10;99.90;;;;;;4344486;28;659145;-66
2022/08/02 14:07:55;;;;;;;13.38;9.18;;;25.70;99.90;;;;;;4366505;28;657487;-64